Granite, Oregon
Current Conditions -  °F | °C
As of 4:53 PM on Thursday 18 Dec 2014 (Local Time) from KBKE Reporting Station
Overcast Overcast  
Wind Chill: 29°   Ceiling: 8500
Heat Index: 38°   Visibility: 10mi
Dew Point: 32°   Wind: 17mph
Humidity: 79%   Direction: 100°E
Pressure: 30.01"   Gusts: NA
Location:  44.7337°N, 118.267°W
Report Text: KBKE 190053Z AUTO 10015KT 10SM OVC085 03/00 A3001 RMK AO2 SLP179 T00330000
Loading
Personal Weather Stations






























Interactive Weather Map New forecast layout! Learn more

10-Day Weather Forecast

Advertisements
Track Severe Weather on mobile